createdAt,value
2023-10-16T00:00:28.466Z,2.7
2023-10-16T00:01:36.901Z,2.4
2023-10-16T00:02:45.213Z,2.4
2023-10-16T00:03:53.563Z,2.4
2023-10-16T00:05:02.066Z,3.2
2023-10-16T00:06:10.398Z,3.2
2023-10-16T00:07:18.719Z,3.2
2023-10-16T00:08:27.249Z,3.4
2023-10-16T00:09:35.621Z,3.4
2023-10-16T00:10:43.920Z,3.4
2023-10-16T00:11:52.453Z,2.9
2023-10-16T00:13:00.792Z,2.9
2023-10-16T00:14:09.129Z,2.9
2023-10-16T00:15:17.669Z,2.1
2023-10-16T00:16:26.045Z,2.1
2023-10-16T00:17:34.328Z,2.1
2023-10-16T00:18:42.895Z,3
2023-10-16T00:19:51.242Z,3
2023-10-16T00:20:59.601Z,3
2023-10-16T00:22:08.162Z,2.5
2023-10-16T00:23:16.510Z,2.5
2023-10-16T00:24:24.975Z,2.5
2023-10-16T00:25:33.394Z,1.9
2023-10-16T00:26:41.755Z,1.9
2023-10-16T00:27:50.144Z,1.9
2023-10-16T00:28:58.703Z,2.5
2023-10-16T00:30:07.031Z,2.5
2023-10-16T00:31:15.377Z,2.5
2023-10-16T00:32:23.963Z,2.1
2023-10-16T00:33:32.295Z,2.1
2023-10-16T00:34:40.662Z,2.1
2023-10-16T00:35:49.204Z,3.2
2023-10-16T00:36:57.567Z,3.2
2023-10-16T00:38:05.929Z,3.2
2023-10-16T00:39:15.146Z,1.7
2023-10-16T00:40:22.830Z,1.7
2023-10-16T00:41:31.175Z,1.7
2023-10-16T00:42:39.711Z,2.3
2023-10-16T00:43:48.038Z,2.3
2023-10-16T00:44:56.378Z,2.3
2023-10-16T00:46:04.959Z,2.4
2023-10-16T00:47:13.281Z,2.4
2023-10-16T00:48:21.657Z,2.4
2023-10-16T00:49:30.188Z,2.9
2023-10-16T00:50:38.543Z,2.9
2023-10-16T00:51:46.970Z,2.9
2023-10-16T00:52:55.451Z,3.3
2023-10-16T00:54:03.777Z,3.3
2023-10-16T00:55:12.122Z,3.3
2023-10-16T00:56:20.683Z,3.3
2023-10-16T00:57:29.040Z,3.3
2023-10-16T00:58:37.333Z,3.3
2023-10-16T00:59:45.881Z,3.2
2023-10-16T01:00:54.234Z,3.2
2023-10-16T01:02:02.582Z,3.2
2023-10-16T01:03:11.196Z,2.8
2023-10-16T01:04:19.511Z,2.8
2023-10-16T01:05:27.796Z,2.8
2023-10-16T01:06:36.334Z,1.8
2023-10-16T01:07:44.669Z,1.8
2023-10-16T01:08:53.001Z,1.8
2023-10-16T01:10:01.577Z,2.8
2023-10-16T01:11:09.870Z,2.8
2023-10-16T01:12:18.223Z,2.8
2023-10-16T01:13:26.757Z,2.8
2023-10-16T01:14:35.118Z,2.8
2023-10-16T01:15:43.492Z,2.8
2023-10-16T01:16:51.990Z,3.9
2023-10-16T01:18:00.330Z,3.9
2023-10-16T01:19:08.671Z,3.9
2023-10-16T01:20:17.225Z,4.2
2023-10-16T01:21:25.536Z,4.2
2023-10-16T01:22:33.852Z,4.2
2023-10-16T01:23:42.394Z,2.1
2023-10-16T01:24:50.755Z,2.1
2023-10-16T01:25:59.046Z,2.1
2023-10-16T01:27:07.644Z,3
2023-10-16T01:28:15.922Z,3
2023-10-16T01:29:24.261Z,3
2023-10-16T01:30:32.837Z,3.4
2023-10-16T01:31:41.146Z,3.4
2023-10-16T01:32:49.479Z,3.4
2023-10-16T01:33:58.007Z,3.4
2023-10-16T01:35:06.347Z,3.4
2023-10-16T01:36:14.692Z,3.4
2023-10-16T01:37:23.215Z,3
2023-10-16T01:38:31.545Z,3
2023-10-16T01:39:39.939Z,3
2023-10-16T01:40:48.418Z,3
2023-10-16T01:41:56.761Z,3
2023-10-16T01:43:05.089Z,3
2023-10-16T01:44:13.652Z,3.1
2023-10-16T01:45:22.052Z,3.1
2023-10-16T01:46:30.355Z,3.1
2023-10-16T01:47:38.888Z,2.2
2023-10-16T01:48:47.223Z,2.2
2023-10-16T01:49:55.542Z,2.2
2023-10-16T01:51:04.095Z,3.2
2023-10-16T01:52:12.456Z,3.2
2023-10-16T01:53:20.771Z,3.2
2023-10-16T01:54:29.474Z,4.4
2023-10-16T01:55:37.673Z,4.4
2023-10-16T01:56:45.990Z,4.4
2023-10-16T01:57:54.562Z,4.4
2023-10-16T01:59:02.859Z,4.4
2023-10-16T02:00:11.183Z,4.4
2023-10-16T02:01:19.738Z,4.5
2023-10-16T02:02:28.094Z,4.5
2023-10-16T02:03:36.461Z,4.5
2023-10-16T02:04:44.935Z,2.9
2023-10-16T02:05:53.270Z,2.9
2023-10-16T02:07:01.601Z,2.9
2023-10-16T02:08:10.190Z,4
2023-10-16T02:09:18.497Z,4
2023-10-16T02:10:26.818Z,4
2023-10-16T02:11:35.348Z,4.3
2023-10-16T02:12:43.761Z,4.3
2023-10-16T02:13:52.000Z,4.3
2023-10-16T02:15:00.564Z,3.9
2023-10-16T02:16:08.896Z,3.9
2023-10-16T02:17:17.192Z,3.9
2023-10-16T02:18:25.765Z,3.7
2023-10-16T02:19:34.072Z,3.7
2023-10-16T02:20:42.392Z,3.7
2023-10-16T02:21:50.950Z,3.8
2023-10-16T02:22:59.243Z,3.8
2023-10-16T02:24:07.617Z,3.8
2023-10-16T02:25:16.125Z,4
2023-10-16T02:26:24.452Z,4
2023-10-16T02:27:32.831Z,4
2023-10-16T02:28:41.336Z,3.5
2023-10-16T02:29:49.668Z,3.5
2023-10-16T02:30:58.058Z,3.5
2023-10-16T02:32:06.538Z,3.9
2023-10-16T02:33:14.870Z,3.9
2023-10-16T02:34:23.205Z,3.9
2023-10-16T02:35:31.730Z,4.6
2023-10-16T02:36:40.110Z,4.6
2023-10-16T02:37:48.392Z,4.6
2023-10-16T02:38:56.925Z,3.5
2023-10-16T02:40:05.289Z,3.5
2023-10-16T02:41:13.608Z,3.5
2023-10-16T02:42:22.259Z,4.7
2023-10-16T02:43:30.479Z,4.7
2023-10-16T02:44:38.816Z,4.7
2023-10-16T02:45:47.337Z,5.2
2023-10-16T02:46:55.727Z,5.2
2023-10-16T02:48:04.014Z,5.2
2023-10-16T02:49:12.536Z,3.9
2023-10-16T02:50:20.867Z,3.9
2023-10-16T02:51:29.272Z,3.9
2023-10-16T02:52:37.741Z,3.4
2023-10-16T02:53:46.067Z,3.4
2023-10-16T02:54:54.428Z,3.4
2023-10-16T02:56:02.964Z,3.6
2023-10-16T02:57:11.281Z,3.6
2023-10-16T02:58:19.606Z,3.6
2023-10-16T02:59:28.160Z,4.4
2023-10-16T03:00:36.536Z,4.4
2023-10-16T03:01:44.851Z,4.4
2023-10-16T03:02:53.418Z,3.4
2023-10-16T03:04:01.722Z,3.4
2023-10-16T03:05:10.010Z,3.4
2023-10-16T03:06:18.595Z,3.8
2023-10-16T03:07:26.893Z,3.8
2023-10-16T03:08:35.219Z,3.8
2023-10-16T03:09:43.777Z,6.7
2023-10-16T03:10:52.102Z,6.7
2023-10-16T03:12:00.461Z,6.7
2023-10-16T03:13:08.966Z,3.3
2023-10-16T03:14:17.287Z,3.3
2023-10-16T03:15:25.628Z,3.3
2023-10-16T03:16:34.196Z,4.3
2023-10-16T03:17:42.535Z,4.3
2023-10-16T03:18:50.838Z,4.3
2023-10-16T03:19:59.358Z,3
2023-10-16T03:21:07.680Z,3
2023-10-16T03:22:16.009Z,3
2023-10-16T03:23:24.548Z,4.2
2023-10-16T03:24:32.878Z,4.2
2023-10-16T03:25:41.223Z,4.2
2023-10-16T03:26:49.762Z,5.2
2023-10-16T03:27:58.105Z,5.2
2023-10-16T03:29:06.497Z,5.2
2023-10-16T03:30:14.962Z,3.5
2023-10-16T03:31:23.316Z,3.5
2023-10-16T03:32:31.690Z,3.5
2023-10-16T03:33:40.260Z,3.7
2023-10-16T03:34:48.502Z,3.7
2023-10-16T03:35:56.823Z,3.7
2023-10-16T03:37:05.492Z,3.2
2023-10-16T03:38:13.811Z,3.2
2023-10-16T03:39:22.151Z,3.2
2023-10-16T03:40:30.709Z,2.6
2023-10-16T03:41:39.060Z,2.6
2023-10-16T03:42:47.424Z,2.6
2023-10-16T03:43:55.957Z,3
2023-10-16T03:45:04.264Z,3
2023-10-16T03:46:12.593Z,3
2023-10-16T03:47:21.121Z,3.4
2023-10-16T03:48:29.501Z,3.4
2023-10-16T03:49:38.933Z,3.4
2023-10-16T03:50:46.304Z,5.2
2023-10-16T03:51:54.673Z,5.2
2023-10-16T03:53:02.979Z,5.2
2023-10-16T03:54:11.680Z,4.1
2023-10-16T03:55:20.088Z,4.1
2023-10-16T03:56:28.341Z,4.1
2023-10-16T03:57:36.917Z,3.9
2023-10-16T03:58:45.212Z,3.9
2023-10-16T03:59:53.550Z,3.9
2023-10-16T04:01:02.100Z,3.6
2023-10-16T04:02:10.391Z,3.6
2023-10-16T04:03:18.767Z,3.6
2023-10-16T04:04:27.525Z,3.9
2023-10-16T04:05:35.574Z,3.9
2023-10-16T04:06:43.932Z,3.9
2023-10-16T04:07:52.465Z,3.9
2023-10-16T04:09:00.789Z,3.9
2023-10-16T04:10:09.123Z,3.9
2023-10-16T04:11:17.674Z,4.3
2023-10-16T04:12:26.009Z,4.3
2023-10-16T04:13:34.325Z,4.3
2023-10-16T04:14:42.874Z,3.3
2023-10-16T04:15:51.274Z,3.3
2023-10-16T04:16:59.540Z,3.3
2023-10-16T04:18:08.112Z,3
2023-10-16T04:19:16.907Z,3
2023-10-16T04:20:25.225Z,3
2023-10-16T04:21:33.794Z,3.3
2023-10-16T04:22:42.097Z,3.3
2023-10-16T04:23:50.438Z,3.3
2023-10-16T04:24:59.009Z,3.3
2023-10-16T04:26:07.327Z,3.3
2023-10-16T04:27:15.664Z,3.3
2023-10-16T04:28:24.223Z,4.8
2023-10-16T04:29:32.559Z,4.8
2023-10-16T04:30:41.203Z,4.8
2023-10-16T04:31:49.468Z,7
2023-10-16T04:32:57.985Z,7
2023-10-16T04:34:06.093Z,7
2023-10-16T04:35:14.668Z,7.5
2023-10-16T04:36:23.007Z,7.5
2023-10-16T04:37:31.338Z,7.5
2023-10-16T04:38:39.904Z,5.1
2023-10-16T04:39:48.284Z,5.1
2023-10-16T04:40:56.570Z,5.1
2023-10-16T04:42:05.121Z,4.3
2023-10-16T04:43:13.463Z,4.3
2023-10-16T04:44:21.798Z,4.3
2023-10-16T04:45:30.386Z,3.5
2023-10-16T04:46:38.681Z,3.5
2023-10-16T04:47:47.050Z,3.5
2023-10-16T04:48:55.621Z,4.5
2023-10-16T04:50:03.873Z,4.5
2023-10-16T04:52:20.761Z,4
2023-10-16T04:53:29.063Z,4
2023-10-16T04:54:37.426Z,4
2023-10-16T04:55:45.941Z,6
2023-10-16T04:56:54.271Z,6
2023-10-16T04:58:02.609Z,6
2023-10-16T04:59:11.146Z,4.5
2023-10-16T05:00:19.486Z,4.5
2023-10-16T05:01:27.841Z,4.5
2023-10-16T05:02:36.402Z,4.8
2023-10-16T05:03:45.079Z,4.8
2023-10-16T05:04:53.024Z,4.8
2023-10-16T05:06:01.577Z,4.6
2023-10-16T05:07:09.900Z,4.6
2023-10-16T05:08:18.261Z,4.6
2023-10-16T05:09:26.802Z,4
2023-10-16T05:10:35.116Z,4
2023-10-16T05:11:43.441Z,4
2023-10-16T05:12:52.005Z,4.1
2023-10-16T05:14:00.318Z,4.1
2023-10-16T05:15:08.675Z,4.1
2023-10-16T05:16:17.209Z,4.4
2023-10-16T05:17:25.558Z,4.4
2023-10-16T05:18:33.881Z,4.4
2023-10-16T05:19:42.430Z,3.1
2023-10-16T05:20:50.749Z,3.1
2023-10-16T05:21:59.091Z,3.1
2023-10-16T05:23:07.610Z,4.2
2023-10-16T05:24:15.945Z,4.2
2023-10-16T05:25:24.291Z,4.2
2023-10-16T05:26:32.819Z,2.7
2023-10-16T05:27:41.164Z,2.7
2023-10-16T05:28:49.480Z,2.7
2023-10-16T05:29:58.025Z,2.5
2023-10-16T05:31:06.413Z,2.5
2023-10-16T05:32:14.685Z,2.5
2023-10-16T05:33:23.241Z,2.4
2023-10-16T05:34:31.579Z,2.4
2023-10-16T05:35:39.947Z,2.4
2023-10-16T05:36:48.485Z,3.5
2023-10-16T05:37:56.794Z,3.5
2023-10-16T05:39:05.136Z,3.5
2023-10-16T05:40:13.679Z,2.8
2023-10-16T05:41:22.010Z,2.8
2023-10-16T05:42:30.372Z,2.8
2023-10-16T05:43:38.888Z,2.7
2023-10-16T05:44:47.218Z,2.7
2023-10-16T05:45:55.642Z,2.7
2023-10-16T05:47:04.108Z,3.3
2023-10-16T05:48:12.492Z,3.3
2023-10-16T05:49:20.764Z,3.3
2023-10-16T05:50:29.309Z,3.8
2023-10-16T05:51:37.675Z,3.8
2023-10-16T05:52:45.981Z,3.8
2023-10-16T05:53:54.513Z,3.5
2023-10-16T05:55:02.856Z,3.5
2023-10-16T05:56:11.175Z,3.5
2023-10-16T05:57:19.720Z,3.3
2023-10-16T05:58:28.055Z,3.3
2023-10-16T05:59:36.575Z,3.3
2023-10-16T06:00:44.983Z,3.2
2023-10-16T06:01:53.345Z,3.2
2023-10-16T06:03:01.636Z,3.2
2023-10-16T06:04:10.193Z,3.8
2023-10-16T06:05:18.612Z,3.8
2023-10-16T06:06:26.818Z,3.8
2023-10-16T06:07:35.401Z,4.1
2023-10-16T06:08:43.714Z,4.1
2023-10-16T06:09:52.080Z,4.1
2023-10-16T06:11:00.592Z,2.4
2023-10-16T06:12:08.920Z,2.4
2023-10-16T06:13:19.192Z,2.4
2023-10-16T06:14:26.027Z,2.8
2023-10-16T06:15:34.209Z,2.8
2023-10-16T06:16:42.558Z,2.8
2023-10-16T06:17:51.071Z,3.7
2023-10-16T06:18:59.435Z,3.7
2023-10-16T06:20:07.715Z,3.7
2023-10-16T06:21:16.268Z,2.8
2023-10-16T06:22:24.599Z,2.8
2023-10-16T06:23:32.950Z,2.8
2023-10-16T06:24:41.514Z,3.1
2023-10-16T06:25:49.812Z,3.1
2023-10-16T06:27:00.167Z,3.1
2023-10-16T06:28:06.696Z,3.5
2023-10-16T06:29:15.033Z,3.5
2023-10-16T06:30:23.392Z,3.5
2023-10-16T06:31:31.934Z,2.8
2023-10-16T06:32:40.294Z,2.8
2023-10-16T06:33:48.616Z,2.8
2023-10-16T06:34:57.143Z,3.3
2023-10-16T06:36:05.472Z,3.3
2023-10-16T06:37:13.798Z,3.3
2023-10-16T06:38:22.339Z,2.8
2023-10-16T06:39:30.757Z,2.8
2023-10-16T06:40:39.033Z,2.8
2023-10-16T06:41:47.569Z,2.8
2023-10-16T06:42:55.913Z,2.8
2023-10-16T06:44:04.243Z,2.8
2023-10-16T06:45:12.781Z,2.9
2023-10-16T06:46:21.167Z,2.9
2023-10-16T06:47:29.453Z,2.9
2023-10-16T06:48:38.054Z,4
2023-10-16T06:49:46.318Z,4
2023-10-16T06:50:54.876Z,4
2023-10-16T06:52:03.210Z,2.3
2023-10-16T06:53:11.534Z,2.3
2023-10-16T06:54:19.850Z,2.3
2023-10-16T06:55:28.435Z,3.1
2023-10-16T06:56:36.733Z,3.1
2023-10-16T06:57:45.088Z,3.1
2023-10-16T06:58:53.624Z,3.8
2023-10-16T07:00:01.946Z,3.8
2023-10-16T07:01:10.360Z,3.8
2023-10-16T07:02:18.834Z,4.4
2023-10-16T07:03:27.225Z,4.4
2023-10-16T07:04:35.605Z,4.4
2023-10-16T07:05:44.639Z,5.4
2023-10-16T07:06:52.390Z,5.4
2023-10-16T07:08:00.719Z,5.4
2023-10-16T07:09:09.267Z,3.3
2023-10-16T07:10:17.595Z,3.3
2023-10-16T07:11:25.970Z,3.3
2023-10-16T07:12:34.521Z,3.8
2023-10-16T07:13:42.814Z,3.8
2023-10-16T07:14:51.143Z,3.8
2023-10-16T07:15:59.719Z,3.4
2023-10-16T07:17:08.009Z,3.4
2023-10-16T07:18:16.348Z,3.4
2023-10-16T07:19:24.879Z,3
2023-10-16T07:20:33.229Z,3
2023-10-16T07:21:41.586Z,3
2023-10-16T07:22:50.108Z,5.8
2023-10-16T07:23:58.437Z,5.8
2023-10-16T07:25:06.824Z,5.8
2023-10-16T07:26:15.335Z,4.4
2023-10-16T07:27:23.823Z,4.4
2023-10-16T07:28:31.996Z,4.4
2023-10-16T07:29:40.558Z,3.8
2023-10-16T07:30:49.003Z,3.8
2023-10-16T07:31:57.234Z,3.8
2023-10-16T07:33:05.795Z,2.2
2023-10-16T07:34:14.109Z,2.2
2023-10-16T07:35:22.594Z,2.2
2023-10-16T07:36:30.988Z,3.5
2023-10-16T07:37:39.317Z,3.5
2023-10-16T07:38:47.660Z,3.5
2023-10-16T07:39:56.240Z,3.9
2023-10-16T07:41:04.565Z,3.9
2023-10-16T07:42:12.909Z,3.9
2023-10-16T07:43:21.476Z,2.8
2023-10-16T07:44:29.800Z,2.8
2023-10-16T07:45:38.158Z,2.8
2023-10-16T07:46:46.711Z,3.5
2023-10-16T07:47:55.034Z,3.5
2023-10-16T07:49:03.521Z,3.5
2023-10-16T07:50:11.905Z,4
2023-10-16T07:51:20.279Z,4
2023-10-16T07:52:28.618Z,4
2023-10-16T07:53:37.178Z,5.7
2023-10-16T07:54:45.516Z,5.7
2023-10-16T07:55:53.873Z,5.7
2023-10-16T07:57:02.422Z,6.8
2023-10-16T07:58:10.793Z,6.8
2023-10-16T07:59:19.147Z,6.8
2023-10-16T08:00:27.646Z,4
2023-10-16T08:01:36.056Z,4
2023-10-16T08:02:44.330Z,4
2023-10-16T08:03:52.907Z,5.3
2023-10-16T08:05:01.186Z,5.3
2023-10-16T08:06:09.525Z,5.3
2023-10-16T08:07:18.112Z,4.4
2023-10-16T08:08:26.423Z,4.4
2023-10-16T08:09:34.789Z,4.4
2023-10-16T08:10:43.367Z,4.2
2023-10-16T08:11:51.625Z,4.2
2023-10-16T08:13:00.014Z,4.2
2023-10-16T08:14:08.526Z,5.5
2023-10-16T08:15:17.371Z,5.5
2023-10-16T08:16:28.662Z,5.5
2023-10-16T08:17:37.242Z,2.8
2023-10-16T08:18:45.452Z,2.8
2023-10-16T08:19:53.746Z,2.8
2023-10-16T08:21:02.293Z,4.4
2023-10-16T08:22:10.778Z,4.4
2023-10-16T08:23:18.967Z,4.4
2023-10-16T08:24:27.695Z,7.8
2023-10-16T08:25:35.886Z,7.8
2023-10-16T08:26:44.337Z,7.8
2023-10-16T08:27:52.773Z,3.9
2023-10-16T08:29:01.050Z,3.9
2023-10-16T08:30:09.406Z,3.9
2023-10-16T08:31:17.998Z,6.4
2023-10-16T08:32:26.304Z,6.4
2023-10-16T08:33:34.618Z,6.4
2023-10-16T08:34:43.152Z,4.6
2023-10-16T08:35:51.493Z,4.6
2023-10-16T08:36:59.834Z,4.6
2023-10-16T08:38:08.353Z,4.6
2023-10-16T08:39:16.697Z,4.6
2023-10-16T08:40:25.021Z,4.6
2023-10-16T08:41:33.574Z,5.7
2023-10-16T08:42:41.941Z,5.7
2023-10-16T08:43:50.229Z,5.7
2023-10-16T08:44:58.767Z,4.9
2023-10-16T08:46:07.119Z,4.9
2023-10-16T08:47:15.450Z,4.9
2023-10-16T08:48:23.979Z,4.7
2023-10-16T08:49:34.594Z,4.7
2023-10-16T08:50:40.643Z,4.7
2023-10-16T08:51:49.198Z,4.9
2023-10-16T08:52:57.532Z,4.9
2023-10-16T08:54:05.914Z,4.9
2023-10-16T08:55:14.396Z,6.7
2023-10-16T08:56:22.722Z,6.7
2023-10-16T08:57:31.077Z,6.7
2023-10-16T08:58:39.608Z,5.6
2023-10-16T08:59:47.955Z,5.6
2023-10-16T09:00:56.354Z,5.6
2023-10-16T09:02:04.870Z,4.6
2023-10-16T09:03:13.301Z,4.6
2023-10-16T09:04:21.646Z,4.6
2023-10-16T09:05:30.086Z,5.2
2023-10-16T09:06:38.600Z,5.2
2023-10-16T09:07:46.765Z,5.2
2023-10-16T09:08:55.421Z,4.4
2023-10-16T09:10:03.668Z,4.4
2023-10-16T09:11:11.973Z,4.4
2023-10-16T09:12:20.519Z,4
2023-10-16T09:13:28.952Z,4
2023-10-16T09:14:37.202Z,4
2023-10-16T09:15:45.768Z,4
2023-10-16T09:16:54.276Z,4
2023-10-16T09:18:02.434Z,4
2023-10-16T09:19:11.000Z,3.7
2023-10-16T09:20:19.282Z,3.7
2023-10-16T09:21:27.660Z,3.7
2023-10-16T09:22:36.167Z,3.1
2023-10-16T09:23:44.505Z,3.1
2023-10-16T09:24:52.866Z,3.1
2023-10-16T09:26:01.435Z,3.7
2023-10-16T09:27:09.771Z,3.7
2023-10-16T09:28:18.110Z,3.7
2023-10-16T09:29:26.878Z,3.2
2023-10-16T09:30:35.412Z,3.2
2023-10-16T09:31:43.421Z,3.2
2023-10-16T09:32:51.905Z,4.2
2023-10-16T09:34:00.254Z,4.2
2023-10-16T09:35:08.629Z,4.2
2023-10-16T09:36:17.107Z,5
2023-10-16T09:37:25.457Z,5
2023-10-16T09:38:33.799Z,5
2023-10-16T09:39:42.514Z,4.1
2023-10-16T09:40:50.676Z,4.1
2023-10-16T09:41:58.989Z,4.1
2023-10-16T09:43:07.560Z,3.4
2023-10-16T09:44:15.865Z,3.4
2023-10-16T09:45:24.202Z,3.4
2023-10-16T09:46:32.763Z,3.7
2023-10-16T09:47:41.089Z,3.7
2023-10-16T09:48:49.444Z,3.7
2023-10-16T09:49:57.955Z,4.5
2023-10-16T09:51:06.300Z,4.5
2023-10-16T09:52:14.629Z,4.5
2023-10-16T09:53:23.188Z,4.1
2023-10-16T09:54:31.563Z,4.1
2023-10-16T09:55:40.006Z,4.1
2023-10-16T09:56:48.377Z,2.4
2023-10-16T09:57:56.720Z,2.4
2023-10-16T09:59:05.049Z,2.4
2023-10-16T10:00:13.606Z,3.2
2023-10-16T10:01:22.020Z,3.2
2023-10-16T10:02:30.363Z,3.2
2023-10-16T10:03:38.971Z,5.1
2023-10-16T10:04:47.283Z,5.1
2023-10-16T10:05:55.570Z,5.1
2023-10-16T10:07:04.235Z,4.5
2023-10-16T10:08:12.439Z,4.5
2023-10-16T10:09:20.761Z,4.5
2023-10-16T10:10:29.300Z,2.6
2023-10-16T10:11:37.633Z,2.6
2023-10-16T10:12:45.978Z,2.6
2023-10-16T10:13:54.518Z,5.4
2023-10-16T10:15:02.851Z,5.4
2023-10-16T10:16:11.280Z,5.4
2023-10-16T10:17:19.740Z,2.6
2023-10-16T10:18:28.163Z,2.6
2023-10-16T10:19:36.407Z,2.6
2023-10-16T10:20:44.949Z,3.4
2023-10-16T10:21:53.325Z,3.4
2023-10-16T10:23:01.753Z,3.4
2023-10-16T10:24:10.178Z,5.2
2023-10-16T10:25:20.544Z,5.2
2023-10-16T10:26:26.843Z,5.2
2023-10-16T10:27:35.414Z,3.2
2023-10-16T10:28:43.745Z,3.2
2023-10-16T10:29:52.072Z,3.2
2023-10-16T10:31:00.640Z,4.2
2023-10-16T10:32:08.956Z,4.2
2023-10-16T10:33:17.292Z,4.2
2023-10-16T10:34:26.005Z,2.4
2023-10-16T10:35:34.177Z,2.4
2023-10-16T10:36:42.506Z,2.4
2023-10-16T10:37:51.065Z,1.9
2023-10-16T10:38:59.604Z,1.9
2023-10-16T10:40:07.773Z,1.9
2023-10-16T10:41:16.384Z,2.1
2023-10-16T10:42:24.627Z,2.1
2023-10-16T10:43:32.962Z,2.1
2023-10-16T10:44:41.521Z,3.9
2023-10-16T10:45:49.908Z,3.9
2023-10-16T10:46:58.227Z,3.9
2023-10-16T10:48:06.751Z,5
2023-10-16T10:49:15.093Z,5
2023-10-16T10:50:23.432Z,5
2023-10-16T10:51:32.010Z,2.8
2023-10-16T10:52:40.324Z,2.8
2023-10-16T10:53:48.659Z,2.8
2023-10-16T10:54:57.355Z,2.4
2023-10-16T10:56:05.547Z,2.4
2023-10-16T10:57:13.878Z,2.4
2023-10-16T10:58:22.415Z,2.1
2023-10-16T10:59:30.763Z,2.1
2023-10-16T11:00:39.138Z,2.1
2023-10-16T11:01:47.685Z,3.9
2023-10-16T11:02:56.028Z,3.9
2023-10-16T11:04:04.439Z,3.9
2023-10-16T11:05:12.892Z,2.4
2023-10-16T11:06:21.231Z,2.4
2023-10-16T11:07:29.635Z,2.4
2023-10-16T11:08:38.110Z,2.2
2023-10-16T11:09:47.047Z,2.2
2023-10-16T11:10:55.104Z,2.2
2023-10-16T11:12:03.511Z,3
2023-10-16T11:13:11.888Z,3
2023-10-16T11:14:20.180Z,3
2023-10-16T11:15:28.725Z,3.4
2023-10-16T11:16:37.079Z,3.4
2023-10-16T11:17:45.484Z,3.4
2023-10-16T11:18:54.008Z,4.3
2023-10-16T11:20:02.286Z,4.3
2023-10-16T11:21:10.623Z,4.3
2023-10-16T11:22:19.170Z,2.7
2023-10-16T11:23:27.535Z,2.7
2023-10-16T11:24:35.884Z,2.7
2023-10-16T11:25:44.424Z,5.4
2023-10-16T11:26:52.906Z,5.4
2023-10-16T11:28:01.105Z,5.4
2023-10-16T11:29:09.657Z,2.8
2023-10-16T11:30:17.991Z,2.8
2023-10-16T11:31:26.460Z,2.8
2023-10-16T11:32:34.910Z,2.7
2023-10-16T11:33:43.313Z,2.7
2023-10-16T11:34:51.622Z,2.7
2023-10-16T11:36:00.292Z,2.3
2023-10-16T11:37:08.521Z,2.3
2023-10-16T11:38:16.866Z,2.3
2023-10-16T11:39:25.402Z,2.6
2023-10-16T11:40:33.774Z,2.6
2023-10-16T11:41:42.124Z,2.6
2023-10-16T11:42:50.802Z,4.1
2023-10-16T11:43:58.987Z,4.1
2023-10-16T11:45:07.323Z,4.1
2023-10-16T11:46:15.948Z,1.6
2023-10-16T11:47:24.219Z,1.6
2023-10-16T11:48:32.541Z,1.6
2023-10-16T11:49:41.086Z,2.9
2023-10-16T11:50:49.426Z,2.9
2023-10-16T11:51:57.768Z,2.9
2023-10-16T11:53:06.289Z,3
2023-10-16T11:54:14.629Z,3
2023-10-16T11:55:22.975Z,3
2023-10-16T11:56:31.517Z,2.4
2023-10-16T11:57:39.869Z,2.4
2023-10-16T11:58:48.307Z,2.4
2023-10-16T11:59:56.797Z,3.2
2023-10-16T12:01:12.312Z,3.2
2023-10-16T12:02:13.395Z,3.2
2023-10-16T12:03:21.968Z,2.9
2023-10-16T12:04:30.862Z,2.9
2023-10-16T12:05:38.649Z,2.9
2023-10-16T12:06:47.209Z,4.9
2023-10-16T12:07:55.524Z,4.9
2023-10-16T12:09:03.867Z,4.9
2023-10-16T12:10:12.434Z,4
2023-10-16T12:11:20.771Z,4
2023-10-16T12:12:29.119Z,4
2023-10-16T12:13:44.084Z,3.3
2023-10-16T12:14:52.585Z,3.3
2023-10-16T12:16:00.810Z,3.3
2023-10-16T12:17:09.300Z,2
2023-10-16T12:18:17.643Z,2
2023-10-16T12:19:25.976Z,2
2023-10-16T12:20:34.506Z,4.2
2023-10-16T12:21:42.871Z,4.2
2023-10-16T12:22:51.218Z,4.2
2023-10-16T12:23:59.768Z,5.7
2023-10-16T12:25:08.118Z,5.7
2023-10-16T12:26:16.457Z,5.7
2023-10-16T12:27:25.007Z,2.3
2023-10-16T12:28:33.839Z,2.3
2023-10-16T12:29:41.668Z,2.3
2023-10-16T12:30:50.317Z,2.1
2023-10-16T12:31:58.578Z,2.1
2023-10-16T12:33:06.929Z,2.1
2023-10-16T12:34:15.492Z,4.1
2023-10-16T12:35:23.834Z,4.1
2023-10-16T12:36:32.181Z,4.1
2023-10-16T12:37:40.707Z,2.7
2023-10-16T12:38:49.053Z,2.7
2023-10-16T12:39:57.413Z,2.7
2023-10-16T12:41:05.943Z,4.4
2023-10-16T12:42:14.350Z,4.4
2023-10-16T12:43:22.641Z,4.4
2023-10-16T12:44:31.188Z,2
2023-10-16T12:45:39.528Z,2
2023-10-16T12:46:48.366Z,2
2023-10-16T12:47:58.983Z,5.4
2023-10-16T12:49:05.143Z,5.4
2023-10-16T12:50:13.453Z,5.4
2023-10-16T12:51:21.991Z,2.8
2023-10-16T12:52:31.262Z,2.8
2023-10-16T12:53:39.569Z,2.8
2023-10-16T12:54:48.131Z,5.2
2023-10-16T12:55:56.451Z,5.2
2023-10-16T12:57:04.790Z,5.2
2023-10-16T12:58:13.351Z,3.5
2023-10-16T12:59:21.665Z,3.5
2023-10-16T13:00:30.012Z,3.5
2023-10-16T13:01:38.558Z,4.5
2023-10-16T13:02:47.131Z,4.5
2023-10-16T13:03:55.396Z,4.5
2023-10-16T13:05:03.848Z,2.3
2023-10-16T13:06:12.205Z,2.3
2023-10-16T13:07:30.999Z,2.3
2023-10-16T13:08:29.092Z,3
2023-10-16T13:09:37.516Z,3
2023-10-16T13:10:45.796Z,3
2023-10-16T13:11:54.386Z,2.3
2023-10-16T13:13:02.751Z,2.3
2023-10-16T13:14:11.110Z,2.3
2023-10-16T13:15:19.671Z,4.4
2023-10-16T13:16:27.995Z,4.4
2023-10-16T13:17:36.372Z,4.4
2023-10-16T13:18:45.082Z,2.4
2023-10-16T13:19:53.240Z,2.4
2023-10-16T13:21:01.573Z,2.4
2023-10-16T13:22:10.191Z,1.8
2023-10-16T13:23:21.539Z,1.8
2023-10-16T13:24:26.939Z,1.8
2023-10-16T13:25:35.383Z,70.599998
2023-10-16T13:26:43.755Z,70.599998
2023-10-16T13:27:52.112Z,70.599998
2023-10-16T13:29:00.634Z,6.1
2023-10-16T13:30:08.987Z,6.1
2023-10-16T13:31:17.513Z,6.1
2023-10-16T13:32:27.355Z,1.9
2023-10-16T13:33:34.307Z,1.9
2023-10-16T13:34:42.822Z,1.9
2023-10-16T13:35:51.214Z,3.3
2023-10-16T13:36:59.610Z,3.3
2023-10-16T13:38:07.906Z,3.3
2023-10-16T13:39:16.471Z,3
2023-10-16T13:40:24.822Z,3
2023-10-16T13:41:33.177Z,3
2023-10-16T13:42:41.723Z,4.5
2023-10-16T13:43:50.042Z,4.5
2023-10-16T13:44:58.374Z,4.5
2023-10-16T13:46:06.972Z,2.4
2023-10-16T13:47:15.289Z,2.4
2023-10-16T13:48:23.646Z,2.4
2023-10-16T13:49:32.193Z,3.5
2023-10-16T13:50:40.562Z,3.5
2023-10-16T13:51:48.926Z,3.5
2023-10-16T13:52:57.452Z,2.9
2023-10-16T13:54:05.809Z,2.9
2023-10-16T13:55:14.217Z,2.9
2023-10-16T13:56:22.728Z,5.4
2023-10-16T13:57:31.094Z,5.4
2023-10-16T13:58:39.464Z,5.4
2023-10-16T13:59:48.010Z,4
2023-10-16T14:00:56.392Z,4
2023-10-16T14:02:04.724Z,4
2023-10-16T14:03:13.285Z,3.6
2023-10-16T14:04:21.623Z,3.6
2023-10-16T14:05:29.971Z,3.6
2023-10-16T14:06:38.556Z,3.3
2023-10-16T14:07:46.866Z,3.3
2023-10-16T14:08:55.202Z,3.3
2023-10-16T14:10:03.799Z,3.1
2023-10-16T14:11:12.135Z,3.1
2023-10-16T14:12:20.486Z,3.1
2023-10-16T14:13:29.050Z,5.1
2023-10-16T14:14:37.417Z,5.1
2023-10-16T14:15:45.743Z,5.1
2023-10-16T14:16:54.362Z,3.6
2023-10-16T14:18:02.725Z,3.6
2023-10-16T14:19:11.274Z,3.6
2023-10-16T14:20:19.840Z,3.5
2023-10-16T14:21:28.273Z,3.5
2023-10-16T14:22:36.654Z,3.5
2023-10-16T14:23:45.817Z,3.7
2023-10-16T14:24:53.616Z,3.7
2023-10-16T14:26:02.877Z,3.7
2023-10-16T14:27:11.611Z,2.8
2023-10-16T14:28:19.987Z,2.8
2023-10-16T14:29:28.392Z,2.8
2023-10-16T14:30:48.868Z,3.9
2023-10-16T14:31:45.301Z,3.9
2023-10-16T14:32:53.652Z,3.9
2023-10-16T14:34:02.232Z,4.2
2023-10-16T14:35:10.548Z,4.2
2023-10-16T14:36:18.935Z,4.2
2023-10-16T14:37:27.506Z,6.9
2023-10-16T14:38:35.902Z,6.9
2023-10-16T14:39:44.274Z,6.9
2023-10-16T14:40:52.835Z,4.1
2023-10-16T14:42:03.789Z,4.1
2023-10-16T14:43:14.513Z,4.1
2023-10-16T14:44:25.059Z,4.8
2023-10-16T14:45:31.433Z,4.8
2023-10-16T14:46:39.829Z,4.8
2023-10-16T14:47:49.992Z,11.8
2023-10-16T14:48:57.249Z,11.8
2023-10-16T14:50:06.261Z,11.8
2023-10-16T14:51:14.873Z,18.700001
2023-10-16T14:52:23.308Z,18.700001
2023-10-16T14:53:33.643Z,18.700001
2023-10-16T14:54:52.795Z,7.1
2023-10-16T14:56:19.315Z,7.1
2023-10-16T14:57:27.606Z,7.1
2023-10-16T14:59:11.433Z,56.5
2023-10-16T14:59:44.573Z,56.5
2023-10-16T15:00:52.917Z,56.5
2023-10-16T15:02:01.901Z,17.1
2023-10-16T15:03:10.003Z,17.1
2023-10-16T15:04:18.287Z,17.1
2023-10-16T15:05:26.804Z,8.1
2023-10-16T15:06:35.143Z,8.1
2023-10-16T15:07:43.500Z,8.1
2023-10-16T15:08:52.058Z,4.2
2023-10-16T15:10:00.513Z,4.2
2023-10-16T15:11:08.789Z,4.2
2023-10-16T15:45:00.999Z,0
2023-10-16T15:46:09.424Z,0
2023-10-16T15:47:17.816Z,0
2023-10-16T15:48:26.326Z,3.9
2023-10-16T15:49:34.662Z,3.9
2023-10-16T15:50:43.056Z,3.9
2023-10-16T15:51:55.037Z,7.5
2023-10-16T15:52:59.993Z,7.5
2023-10-16T15:54:08.349Z,7.5
2023-10-16T15:55:16.975Z,10.5
2023-10-16T15:56:25.318Z,10.5
2023-10-16T15:57:33.657Z,10.5
2023-10-16T15:58:42.233Z,5
2023-10-16T15:59:50.624Z,5
2023-10-16T16:00:59.879Z,5
2023-10-16T16:02:08.440Z,3.2
2023-10-16T16:03:16.755Z,3.2
2023-10-16T16:04:25.753Z,3.2
2023-10-16T16:05:35.278Z,3.2
2023-10-16T16:06:42.512Z,3.2
2023-10-16T16:07:50.861Z,3.2
2023-10-16T16:08:59.456Z,4
2023-10-16T16:10:07.928Z,4
2023-10-16T16:11:16.215Z,4
2023-10-16T16:12:24.793Z,5.1
2023-10-16T16:13:33.136Z,5.1
2023-10-16T16:14:41.521Z,5.1
2023-10-16T16:15:50.144Z,14.3
2023-10-16T16:16:58.532Z,14.3
2023-10-16T16:18:06.940Z,14.3
2023-10-16T16:19:15.482Z,10.1
2023-10-16T16:20:24.022Z,10.1
2023-10-16T16:21:32.382Z,10.1